Time;durP1;ratioP1;P1;durP2;ratioP2;P2;SDS_P1;SDS_P2;PMS_P1;PMS_P2;Temp;Humidity;BMP_temperature;BMP_pressure;BME280_temperature;BME280_humidity;BME280_pressure;Samples;Min_cycle;Max_cycle;Signal;HPM_P1;HPM_P2
2022/11/03 00:01:06;;;;;;;23.10;4.85;;;16.40;73.00;;;;;;7367567;19;20105;-77
2022/11/03 00:03:34;;;;;;;15.25;3.55;;;16.40;73.10;;;;;;7378095;19;20018;-80
2022/11/03 00:06:06;;;;;;;20.80;3.97;;;16.40;73.10;;;;;;7388422;19;20078;-80
2022/11/03 00:08:38;;;;;;;;;;;16.30;73.10;;;;;;7385453;19;20711;-81
2022/11/03 00:11:09;;;;;;;21.80;3.92;;;16.40;73.30;;;;;;7380705;19;19919;-80
2022/11/03 00:13:40;;;;;;;20.60;4.45;;;16.30;73.20;;;;;;7403807;19;20051;-81
2022/11/03 00:16:09;;;;;;;22.95;4.00;;;16.30;73.30;;;;;;7380353;19;20014;-79
2022/11/03 00:18:38;;;;;;;16.33;3.78;;;16.30;73.30;;;;;;7380722;19;20071;-80
2022/11/03 00:21:09;;;;;;;21.05;4.32;;;16.30;73.40;;;;;;7378895;19;20074;-81
2022/11/03 00:23:43;;;;;;;18.58;4.50;;;16.30;73.50;;;;;;7378981;19;20086;-81
2022/11/03 00:29:23;;;;;;;14.23;4.07;;;16.30;73.60;;;;;;7377230;19;20029;-80
2022/11/03 00:31:52;;;;;;;23.15;3.95;;;16.30;73.30;;;;;;7398779;19;20019;-81
2022/11/03 00:34:21;;;;;;;16.50;3.90;;;16.30;73.40;;;;;;7375426;19;20018;-80
2022/11/03 00:36:50;;;;;;;13.27;3.97;;;16.30;73.40;;;;;;7375432;19;20014;-81
2022/11/03 00:39:21;;;;;;;20.90;3.95;;;16.30;73.40;;;;;;7375959;19;20018;-81
2022/11/03 00:41:50;;;;;;;21.55;3.80;;;16.30;73.60;;;;;;7376603;19;20010;-80
2022/11/03 00:44:19;;;;;;;16.27;3.75;;;16.30;73.40;;;;;;7375213;19;20027;-81
2022/11/03 00:46:47;;;;;;;20.60;3.75;;;16.30;73.50;;;;;;7398503;19;20015;-81
2022/11/03 00:49:16;;;;;;;18.30;3.40;;;16.30;73.50;;;;;;7373539;19;20011;-80
2022/11/03 00:51:45;;;;;;;14.73;3.72;;;16.30;73.50;;;;;;7374005;19;20034;-80
2022/11/03 00:54:14;;;;;;;25.02;3.95;;;16.30;73.60;;;;;;7371765;19;20023;-81
2022/11/03 00:56:45;;;;;;;21.77;4.30;;;16.30;73.50;;;;;;7373978;19;20093;-81
2022/11/03 00:59:14;;;;;;;21.08;4.22;;;16.30;73.60;;;;;;7373668;19;20030;-80
2022/11/03 01:01:45;;;;;;;19.67;4.07;;;16.30;73.60;;;;;;7393874;19;20097;-81
2022/11/03 01:06:57;;;;;;;21.23;4.25;;;16.30;74.40;;;;;;7376299;19;20440;-81
2022/11/03 01:09:27;;;;;;;20.98;3.75;;;16.30;73.60;;;;;;7376422;19;20050;-80
2022/11/03 01:12:02;;;;;;;20.55;3.90;;;16.30;73.70;;;;;;7375980;19;20488;-80
2022/11/03 01:14:34;;;;;;;11.48;3.50;;;16.30;73.80;;;;;;7376202;19;20027;-80
2022/11/03 01:17:03;;;;;;;17.35;4.03;;;16.30;73.70;;;;;;7377404;19;20298;-80
2022/11/03 01:19:32;;;;;;;16.08;4.35;;;16.30;73.60;;;;;;7395014;19;20010;-80
2022/11/03 01:22:01;;;;;;;23.55;4.18;;;16.30;73.70;;;;;;7374742;19;20010;-81
2022/11/03 01:24:30;;;;;;;17.65;3.85;;;16.40;73.60;;;;;;7376348;19;20085;-81
2022/11/03 01:27:01;;;;;;;12.52;3.97;;;16.40;74.40;;;;;;7378410;19;20094;-81
2022/11/03 01:29:32;;;;;;;13.85;3.38;;;16.40;73.70;;;;;;7378920;19;20066;-81
2022/11/03 01:32:00;;;;;;;16.30;3.95;;;16.40;73.60;;;;;;7374299;19;20010;-80
2022/11/03 01:34:29;;;;;;;17.48;3.55;;;16.40;73.60;;;;;;7400150;19;20027;-81
2022/11/03 01:36:58;;;;;;;16.13;3.47;;;16.40;73.40;;;;;;7378611;19;20469;-81
2022/11/03 01:39:27;;;;;;;20.35;3.72;;;16.40;73.30;;;;;;7379589;19;20034;-80
2022/11/03 01:41:55;;;;;;;23.60;4.00;;;16.40;73.30;;;;;;7378828;19;20014;-80
2022/11/03 01:44:33;;;;;;;22.00;4.10;;;16.40;73.40;;;;;;7375501;19;20027;-81
2022/11/03 01:47:08;;;;;;;18.98;3.78;;;16.30;73.50;;;;;;7376395;19;20138;-81
2022/11/03 01:49:43;;;;;;;14.63;3.42;;;16.30;73.60;;;;;;7398296;19;20538;-81
2022/11/03 01:52:16;;;;;;;16.60;3.60;;;16.30;73.60;;;;;;7375051;19;20404;-81
2022/11/03 01:54:50;;;;;;;16.58;3.83;;;16.30;73.60;;;;;;7372756;19;20019;-81
2022/11/03 01:57:24;;;;;;;17.85;3.55;;;16.30;73.60;;;;;;7374285;19;20110;-81
2022/11/03 01:59:57;;;;;;;16.92;3.38;;;16.30;74.50;;;;;;7370027;19;20048;-82
2022/11/03 02:02:26;;;;;;;17.75;3.50;;;16.30;73.60;;;;;;7372020;19;20085;-81
2022/11/03 02:04:57;;;;;;;15.60;4.07;;;16.30;73.60;;;;;;7390389;19;20105;-81
2022/11/03 02:07:32;;;;;;;22.58;3.90;;;16.20;73.60;;;;;;7400245;19;20042;-81
2022/11/03 02:10:01;;;;;;;22.20;3.90;;;16.20;73.50;;;;;;7389141;19;20018;-81
2022/11/03 02:12:31;;;;;;;27.58;3.80;;;16.30;73.60;;;;;;7398343;19;20082;-81
2022/11/03 02:15:05;;;;;;;22.83;4.40;;;16.30;73.60;;;;;;7385522;19;20577;-80
2022/11/03 02:17:35;;;;;;;21.35;4.22;;;16.30;73.60;;;;;;7380790;19;20023;-81
2022/11/03 02:20:08;;;;;;;16.00;4.32;;;16.30;73.70;;;;;;7383686;19;20031;-81
2022/11/03 02:23:00;;;;;;;26.20;3.75;;;16.20;73.60;;;;;;7405808;19;20041;-80
2022/11/03 02:25:45;;;;;;;19.90;4.53;;;16.20;73.70;;;;;;7389144;19;20018;-81
2022/11/03 02:28:16;;;;;;;21.48;4.43;;;16.20;73.80;;;;;;7390834;19;20015;-81
2022/11/03 02:30:49;;;;;;;21.23;3.63;;;16.20;73.60;;;;;;7390537;19;20014;-81
2022/11/03 02:33:30;;;;;;;24.45;3.78;;;16.20;73.70;;;;;;7389242;19;20044;-81
2022/11/03 02:36:05;;;;;;;24.25;3.85;;;16.20;73.60;;;;;;7387520;19;20011;-81
2022/11/03 02:38:39;;;;;;;13.82;3.60;;;16.20;73.70;;;;;;7386938;19;20839;-81
2022/11/03 02:41:11;;;;;;;14.50;3.65;;;16.20;73.60;;;;;;7385918;19;20015;-81
2022/11/03 02:43:41;;;;;;;18.00;3.72;;;16.20;73.60;;;;;;7404661;19;20030;-81
2022/11/03 02:46:10;;;;;;;23.52;4.60;;;16.20;73.60;;;;;;7378959;19;20106;-81
2022/11/03 02:48:39;;;;;;;16.52;4.32;;;16.20;73.60;;;;;;7379690;19;20105;-81
2022/11/03 02:51:08;;;;;;;22.42;4.07;;;16.20;73.60;;;;;;7378342;19;20454;-81
2022/11/03 02:53:44;;;;;;;23.10;4.40;;;16.20;73.60;;;;;;7375683;19;20090;-81
2022/11/03 02:56:19;;;;;;;14.68;3.92;;;16.20;73.80;;;;;;7375037;19;20027;-81
2022/11/03 02:58:55;;;;;;;21.65;3.88;;;16.20;73.80;;;;;;7401572;19;20106;-80
2022/11/03 03:01:31;;;;;;;18.38;3.67;;;16.20;73.70;;;;;;7375282;19;20018;-80
2022/11/03 03:04:02;;;;;;;26.38;3.97;;;16.20;73.70;;;;;;7376790;19;20037;-80
2022/11/03 03:06:35;;;;;;;20.45;4.32;;;16.20;73.70;;;;;;7376546;19;20010;-80
2022/11/03 03:09:07;;;;;;;22.05;3.50;;;16.20;73.70;;;;;;7374329;19;20010;-81
2022/11/03 03:11:42;;;;;;;14.77;3.03;;;16.20;73.70;;;;;;7373702;19;20022;-81
2022/11/03 03:14:15;;;;;;;13.00;3.83;;;16.20;73.70;;;;;;7374454;19;20093;-81
2022/11/03 03:16:52;;;;;;;18.00;3.65;;;16.20;73.80;;;;;;7396909;19;20022;-81
2022/11/03 03:19:27;;;;;;;14.68;3.72;;;16.20;73.70;;;;;;7379846;19;20070;-81
2022/11/03 03:21:58;;;;;;;14.98;3.47;;;16.20;73.70;;;;;;7376820;19;20022;-81
2022/11/03 03:24:37;;;;;;;15.23;3.90;;;16.20;73.70;;;;;;7377185;19;20675;-81
2022/11/03 03:27:13;;;;;;;24.00;3.80;;;16.20;73.70;;;;;;7381423;19;20027;-81
2022/11/03 03:29:45;;;;;;;17.95;3.42;;;16.20;73.70;;;;;;7378901;19;20018;-80
2022/11/03 03:32:19;;;;;;;18.08;3.45;;;16.20;73.70;;;;;;7381848;19;20025;-80
2022/11/03 03:34:50;;;;;;;18.55;3.60;;;16.20;73.80;;;;;;7402755;19;20030;-80
2022/11/03 03:37:21;;;;;;;21.40;4.22;;;16.20;73.80;;;;;;7379072;19;20048;-81
2022/11/03 03:39:55;;;;;;;14.68;3.88;;;16.20;73.80;;;;;;7376432;19;20029;-82
2022/11/03 03:42:30;;;;;;;14.50;3.30;;;16.20;73.70;;;;;;7376777;19;20024;-81
2022/11/03 03:44:59;;;;;;;19.08;3.45;;;16.10;73.70;;;;;;7376062;19;20862;-80
2022/11/03 03:47:30;;;;;;;16.45;3.30;;;16.20;73.60;;;;;;7375407;19;20121;-82
2022/11/03 03:50:00;;;;;;;18.55;3.95;;;16.20;73.70;;;;;;7377619;19;20014;-80
2022/11/03 03:52:30;;;;;;;21.52;4.07;;;16.20;73.70;;;;;;7396436;19;20346;-81
2022/11/03 03:54:59;;;;;;;18.25;3.90;;;16.20;73.60;;;;;;7374169;19;20026;-82
2022/11/03 03:57:33;;;;;;;17.85;3.40;;;16.20;73.50;;;;;;7375976;19;20013;-81
2022/11/03 04:00:02;;;;;;;21.25;3.88;;;16.10;73.50;;;;;;7376754;19;20077;-81
2022/11/03 04:02:30;;;;;;;17.95;3.78;;;16.10;73.40;;;;;;7379398;19;20042;-81
2022/11/03 04:04:59;;;;;;;16.88;3.88;;;16.10;73.60;;;;;;7376479;19;20025;-81
2022/11/03 04:10:10;;;;;;;21.85;4.18;;;16.10;74.50;;;;;;7374748;19;20329;-81
2022/11/03 04:23:26;;;;;;;21.38;3.97;;;16.10;73.70;;;;;;7375136;19;20125;-81
2022/11/03 04:25:57;;;;;;;17.67;3.53;;;16.10;73.70;;;;;;7391309;19;20087;-80
2022/11/03 04:28:29;;;;;;;20.50;4.47;;;16.10;73.70;;;;;;7397227;19;20016;-81
2022/11/03 04:31:00;;;;;;;23.40;3.88;;;16.00;73.70;;;;;;7377156;19;20288;-80
2022/11/03 04:33:30;;;;;;;17.70;4.13;;;16.10;73.70;;;;;;7374729;19;20022;-80
2022/11/03 04:36:01;;;;;;;19.08;3.78;;;16.10;73.60;;;;;;7375496;19;20481;-80
2022/11/03 04:38:32;;;;;;;15.63;3.73;;;16.10;73.70;;;;;;7373339;19;20014;-81
2022/11/03 04:41:02;;;;;;;25.80;4.88;;;16.10;73.70;;;;;;7374130;19;20768;-80
2022/11/03 04:43:36;;;;;;;26.40;4.13;;;16.10;73.60;;;;;;7394313;19;20015;-81
2022/11/03 04:46:06;;;;;;;22.58;4.45;;;16.00;73.40;;;;;;7373229;19;20094;-81
2022/11/03 04:48:36;;;;;;;17.35;4.30;;;16.10;73.50;;;;;;7373443;19;20780;-80
2022/11/03 04:51:18;;;;;;;14.35;3.67;;;16.00;73.40;;;;;;7376740;19;20019;-81
2022/11/03 04:53:51;;;;;;;18.77;3.75;;;16.00;73.50;;;;;;7379020;19;20046;-81
2022/11/03 04:56:24;;;;;;;14.52;4.00;;;16.00;73.40;;;;;;7376966;19;20074;-82
2022/11/03 04:58:55;;;;;;;18.00;3.95;;;16.00;74.30;;;;;;7403558;19;20022;-81
2022/11/03 05:01:25;;;;;;;19.50;4.28;;;16.00;73.40;;;;;;7380998;19;20041;-80
2022/11/03 05:03:56;;;;;;;17.25;3.85;;;16.00;73.40;;;;;;7384586;19;20010;-81
2022/11/03 05:06:28;;;;;;;19.70;4.53;;;16.00;73.40;;;;;;7380047;19;20399;-80
2022/11/03 05:09:00;;;;;;;19.55;4.50;;;16.00;73.40;;;;;;7379797;19;20027;-79
2022/11/03 05:11:33;;;;;;;18.27;4.10;;;16.00;73.40;;;;;;7384343;19;20010;-80
2022/11/03 05:14:15;;;;;;;19.77;4.15;;;16.00;73.30;;;;;;7389317;19;20085;-80
2022/11/03 05:16:44;;;;;;;13.15;3.53;;;16.00;73.30;;;;;;7410709;19;20351;-80
2022/11/03 05:19:18;;;;;;;22.08;4.97;;;16.00;73.20;;;;;;7383330;19;20038;-80
2022/11/03 05:21:48;;;;;;;16.60;4.60;;;16.00;73.30;;;;;;7379076;19;20015;-81
2022/11/03 05:24:18;;;;;;;23.33;4.30;;;16.00;73.20;;;;;;7375577;19;20082;-80
2022/11/03 05:26:47;;;;;;;24.13;4.72;;;16.00;73.30;;;;;;7376974;19;20433;-80
2022/11/03 05:29:22;;;;;;;19.63;4.40;;;15.90;73.10;;;;;;7372188;19;20024;-80
2022/11/03 05:31:54;;;;;;;14.55;4.05;;;15.90;73.30;;;;;;7398392;19;20014;-80
2022/11/03 05:34:34;;;;;;;35.13;4.20;;;15.90;73.30;;;;;;7376631;19;20086;-81
2022/11/03 05:37:20;;;;;;;18.05;4.20;;;15.90;73.40;;;;;;7374747;19;20025;-81
2022/11/03 05:39:52;;;;;;;22.45;4.20;;;15.90;73.40;;;;;;7376773;19;20051;-81
2022/11/03 05:42:31;;;;;;;25.85;4.60;;;15.80;73.30;;;;;;7386704;19;20031;-80
2022/11/03 05:45:06;;;;;;;10.75;3.45;;;15.80;73.30;;;;;;7393728;19;20023;-81
2022/11/03 05:47:38;;;;;;;16.02;4.00;;;15.80;73.30;;;;;;7413277;19;20026;-80
2022/11/03 05:50:18;;;;;;;25.90;4.45;;;15.80;73.30;;;;;;7401732;19;20086;-79
2022/11/03 05:52:48;;;;;;;15.52;4.05;;;15.80;73.40;;;;;;7415020;19;20017;-80
2022/11/03 05:55:29;;;;;;;24.30;4.07;;;15.90;73.30;;;;;;7389588;19;20014;-80
2022/11/03 05:58:00;;;;;;;14.23;4.00;;;15.80;73.30;;;;;;7385200;19;20089;-80
2022/11/03 06:00:39;;;;;;;16.77;4.25;;;15.80;73.10;;;;;;7380505;19;20024;-80
2022/11/03 06:03:08;;;;;;;17.70;4.35;;;15.80;73.10;;;;;;7384842;19;20359;-80
2022/11/03 06:05:37;;;;;;;14.93;4.07;;;15.80;73.10;;;;;;7382881;19;20359;-80
2022/11/03 06:08:16;;;;;;;17.92;4.32;;;15.80;73.10;;;;;;7382118;19;20078;-80
2022/11/03 06:10:50;;;;;;;10.65;3.30;;;15.80;73.00;;;;;;7407939;19;20434;-81
2022/11/03 06:13:22;;;;;;;19.15;4.32;;;15.80;73.00;;;;;;7390248;19;20034;-81
2022/11/03 06:15:59;;;;;;;18.17;3.95;;;15.80;73.10;;;;;;7383881;19;20011;-82
2022/11/03 06:18:34;;;;;;;17.20;3.60;;;15.80;73.10;;;;;;7384796;19;20484;-81
2022/11/03 06:21:07;;;;;;;20.67;4.70;;;15.80;73.10;;;;;;7384889;19;20022;-82
2022/11/03 06:23:39;;;;;;;15.30;4.25;;;15.90;73.10;;;;;;7388547;19;20007;-81
2022/11/03 06:26:15;;;;;;;27.60;4.22;;;15.80;73.90;;;;;;7385766;19;20018;-81
2022/11/03 06:28:44;;;;;;;25.30;4.63;;;15.80;73.00;;;;;;7404542;19;20143;-81
2022/11/03 06:31:21;;;;;;;17.88;3.83;;;15.80;72.90;;;;;;7384139;19;20505;-81
2022/11/03 06:33:51;;;;;;;25.48;4.50;;;15.80;73.10;;;;;;7390457;19;20591;-80
2022/11/03 06:36:22;;;;;;;16.80;4.80;;;15.80;73.00;;;;;;7385042;19;20131;-80
2022/11/03 06:38:56;;;;;;;12.88;3.78;;;15.80;73.00;;;;;;7382386;19;20063;-81
2022/11/03 06:41:27;;;;;;;18.60;3.90;;;15.80;73.00;;;;;;7384057;19;20033;-80
2022/11/03 06:43:56;;;;;;;16.20;4.07;;;15.80;73.00;;;;;;7401515;19;20017;-81
2022/11/03 06:46:28;;;;;;;18.38;4.15;;;15.80;73.00;;;;;;7407429;19;20019;-80
2022/11/03 06:49:00;;;;;;;18.48;4.25;;;15.80;73.00;;;;;;7385368;19;20022;-80
2022/11/03 06:51:32;;;;;;;22.58;4.70;;;15.90;73.00;;;;;;7384992;19;20088;-79
2022/11/03 06:54:02;;;;;;;19.70;4.32;;;15.80;73.00;;;;;;7383799;19;20011;-80
2022/11/03 06:56:38;;;;;;;13.55;4.40;;;15.80;73.10;;;;;;7382598;19;20026;-81
2022/11/03 06:59:13;;;;;;;31.05;4.65;;;15.90;73.00;;;;;;7380282;19;20022;-80
2022/11/03 07:01:49;;;;;;;25.05;4.53;;;15.80;73.00;;;;;;7402174;19;20513;-80
2022/11/03 07:04:22;;;;;;;16.27;3.90;;;15.80;73.00;;;;;;7384315;19;20026;-80
2022/11/03 07:09:24;;;;;;;25.17;3.97;;;15.80;73.00;;;;;;7391210;19;20061;-81
2022/11/03 07:11:55;;;;;;;15.32;4.45;;;15.80;73.00;;;;;;7391384;19;20014;-81
2022/11/03 07:14:29;;;;;;;18.93;5.10;;;15.80;73.00;;;;;;7383940;19;20019;-81
2022/11/03 07:17:03;;;;;;;20.10;4.65;;;15.80;73.00;;;;;;7380503;19;20018;-81
2022/11/03 07:19:36;;;;;;;16.23;4.38;;;15.80;72.90;;;;;;7404248;19;20138;-81
2022/11/03 07:22:08;;;;;;;12.75;3.10;;;15.90;72.90;;;;;;7380749;19;20027;-81
2022/11/03 07:24:38;;;;;;;;;;;15.80;72.80;;;;;;7380978;19;20006;-81
2022/11/03 07:27:17;;;;;;;20.60;4.43;;;16.00;73.00;;;;;;7383706;19;19922;-81
2022/11/03 07:29:47;;;;;;;15.00;4.68;;;15.90;72.80;;;;;;7383790;19;20011;-81
2022/11/03 07:32:21;;;;;;;17.80;3.70;;;15.90;72.70;;;;;;7381620;19;20493;-80
2022/11/03 07:34:54;;;;;;;18.55;4.43;;;15.90;72.70;;;;;;7403561;19;20042;-80
2022/11/03 07:37:25;;;;;;;17.02;4.35;;;15.90;72.70;;;;;;7384073;19;20624;-80
2022/11/03 07:39:55;;;;;;;15.20;4.47;;;15.90;72.70;;;;;;7378864;19;20028;-80
2022/11/03 07:42:26;;;;;;;16.85;4.03;;;15.90;72.70;;;;;;7379237;19;20018;-81
2022/11/03 07:44:57;;;;;;;18.45;4.10;;;16.00;72.70;;;;;;7371492;19;20031;-81
2022/11/03 07:47:30;;;;;;;17.27;4.03;;;15.90;72.50;;;;;;7379653;19;20010;-82
2022/11/03 07:49:59;;;;;;;16.27;4.07;;;15.90;72.60;;;;;;7402077;19;20031;-81
2022/11/03 07:52:28;;;;;;;22.70;4.40;;;15.90;72.50;;;;;;7383786;19;20462;-82
2022/11/03 07:54:58;;;;;;;12.85;4.07;;;15.90;72.50;;;;;;7384050;19;20006;-79
2022/11/03 07:57:31;;;;;;;13.23;4.07;;;16.00;72.50;;;;;;7383422;19;20025;-79
2022/11/03 08:00:06;;;;;;;18.27;3.83;;;16.00;72.40;;;;;;7384577;19;20015;-82
2022/11/03 08:02:41;;;;;;;9.70;3.80;;;16.00;72.20;;;;;;7376499;19;20422;-82
2022/11/03 08:05:11;;;;;;;12.88;3.83;;;16.00;72.30;;;;;;7391479;19;20804;-82
2022/11/03 08:07:39;;;;;;;17.77;3.97;;;16.00;72.10;;;;;;7409514;19;20031;-80
2022/11/03 08:10:09;;;;;;;13.93;3.63;;;16.10;72.00;;;;;;7388525;19;20031;-81
2022/11/03 08:12:38;;;;;;;13.63;3.55;;;16.10;72.00;;;;;;7386452;19;20015;-79
2022/11/03 08:15:08;;;;;;;11.93;3.78;;;16.10;71.90;;;;;;7385220;19;20038;-78
2022/11/03 08:17:39;;;;;;;12.95;3.50;;;16.10;71.80;;;;;;7382906;19;20018;-81
2022/11/03 08:20:09;;;;;;;12.40;3.70;;;16.20;71.80;;;;;;7380785;19;20078;-85
2022/11/03 08:22:38;;;;;;;15.10;3.67;;;16.20;71.70;;;;;;7399528;19;20022;-83
2022/11/03 08:25:08;;;;;;;11.48;4.43;;;16.20;71.50;;;;;;7382019;19;20444;-86
2022/11/03 08:27:37;;;;;;;15.68;3.83;;;16.30;71.40;;;;;;7382500;19;20984;-83
2022/11/03 08:30:06;;;;;;;11.10;3.88;;;16.30;71.20;;;;;;7382716;19;20058;-85
2022/11/03 08:32:35;;;;;;;11.63;3.40;;;16.30;71.10;;;;;;7382243;19;20015;-83
2022/11/03 08:35:07;;;;;;;20.70;3.70;;;16.30;70.80;;;;;;7382433;19;20023;-89
2022/11/03 08:37:36;;;;;;;16.50;3.45;;;16.40;70.80;;;;;;7407925;19;20015;-88
2022/11/03 08:40:06;;;;;;;12.23;3.67;;;16.40;70.60;;;;;;7388845;19;20006;-88
2022/11/03 08:42:34;;;;;;;13.10;3.50;;;16.40;70.10;;;;;;7386228;19;20415;-84
2022/11/03 08:45:03;;;;;;;13.02;3.28;;;16.40;70.20;;;;;;7386882;19;20023;-84
2022/11/03 08:47:32;;;;;;;8.73;3.25;;;16.40;70.20;;;;;;7386940;19;20015;-85
2022/11/03 08:50:00;;;;;;;15.93;3.30;;;16.50;70.20;;;;;;7396157;19;20014;-84
2022/11/03 08:52:32;;;;;;;11.43;3.80;;;16.50;69.60;;;;;;7410701;19;20014;-83
2022/11/03 08:55:00;;;;;;;;;;;16.50;69.70;;;;;;7387941;19;20014;-84
2022/11/03 08:57:29;;;;;;;15.00;3.67;;;16.60;69.80;;;;;;7383129;19;20428;-84
2022/11/03 08:59:58;;;;;;;9.75;3.15;;;16.60;69.50;;;;;;7384538;19;20026;-82
2022/11/03 09:02:27;;;;;;;11.43;3.50;;;16.60;69.50;;;;;;7379323;19;20021;-82
2022/11/03 09:04:56;;;;;;;11.05;3.50;;;16.60;69.50;;;;;;7402753;19;20060;-82
2022/11/03 09:07:25;;;;;;;9.40;3.42;;;16.60;69.40;;;;;;7377483;19;20018;-83
2022/11/03 09:09:56;;;;;;;10.40;3.60;;;16.60;69.40;;;;;;7379164;19;20027;-82
2022/11/03 09:12:25;;;;;;;9.75;3.20;;;16.60;69.40;;;;;;7377935;19;20011;-82
2022/11/03 09:14:53;;;;;;;15.55;3.35;;;16.60;69.40;;;;;;7376367;19;20086;-81
2022/11/03 09:17:22;;;;;;;16.75;3.17;;;16.50;69.10;;;;;;7377117;19;20030;-83
2022/11/03 09:19:51;;;;;;;13.88;3.28;;;16.50;69.10;;;;;;7403283;19;20028;-82
2022/11/03 09:22:20;;;;;;;11.18;4.20;;;16.60;69.20;;;;;;7378537;19;20508;-82
2022/11/03 09:24:49;;;;;;;13.95;3.50;;;16.60;69.20;;;;;;7384279;19;20042;-81
2022/11/03 09:27:20;;;;;;;12.60;3.42;;;16.70;69.30;;;;;;7390986;19;20022;-83
2022/11/03 09:29:49;;;;;;;7.78;3.00;;;16.70;69.30;;;;;;7392111;19;20038;-83
2022/11/03 09:32:20;;;;;;;9.40;4.00;;;16.70;69.40;;;;;;7385564;19;20039;-84
2022/11/03 09:34:49;;;;;;;9.35;3.35;;;16.70;68.80;;;;;;7404103;19;20035;-83
2022/11/03 09:37:17;;;;;;;11.63;3.28;;;16.70;68.70;;;;;;7380113;19;20087;-82
2022/11/03 09:39:46;;;;;;;14.02;3.50;;;16.70;68.90;;;;;;7380327;19;20023;-82
2022/11/03 09:42:15;;;;;;;10.07;2.90;;;16.70;68.90;;;;;;7380342;19;20060;-83
2022/11/03 09:44:48;;;;;;;8.00;3.10;;;16.80;69.00;;;;;;7384826;19;20015;-83
2022/11/03 09:47:24;;;;;;;6.80;2.97;;;16.80;68.90;;;;;;7384100;19;20019;-83
2022/11/03 09:49:53;;;;;;;10.18;3.03;;;16.80;68.60;;;;;;7403864;19;20100;-83
2022/11/03 09:52:24;;;;;;;12.38;3.30;;;16.90;68.60;;;;;;7379138;19;20090;-84
2022/11/03 09:54:56;;;;;;;11.00;3.13;;;16.90;68.50;;;;;;7376257;19;20042;-87
2022/11/03 09:57:25;;;;;;;;;;;16.90;68.30;;;;;;7377086;19;20017;-84
2022/11/03 09:59:57;;;;;;;8.40;3.28;;;17.00;68.30;;;;;;7377000;19;19924;-83
2022/11/03 10:02:28;;;;;;;13.75;3.30;;;17.00;67.60;;;;;;7380023;19;20011;-82
2022/11/03 10:04:59;;;;;;;8.10;2.85;;;17.00;67.70;;;;;;7398059;19;20201;-84
2022/11/03 10:07:30;;;;;;;13.00;3.50;;;17.00;67.70;;;;;;7375293;19;20114;-81
2022/11/03 10:10:01;;;;;;;13.25;3.38;;;17.00;67.60;;;;;;7373038;19;20059;-84
2022/11/03 10:12:37;;;;;;;6.78;2.75;;;17.00;67.40;;;;;;7374918;19;20021;-84
2022/11/03 10:15:15;;;;;;;8.90;2.60;;;17.00;67.20;;;;;;7372819;19;20514;-82
2022/11/03 10:17:45;;;;;;;5.85;2.60;;;17.00;67.20;;;;;;7376189;19;20015;-82
2022/11/03 10:20:16;;;;;;;6.68;2.47;;;17.00;66.80;;;;;;7374803;19;20380;-82
2022/11/03 10:22:46;;;;;;;7.60;2.70;;;17.00;67.60;;;;;;7395069;19;20462;-82
2022/11/03 10:25:38;;;;;;;10.60;2.72;;;17.00;66.70;;;;;;7373981;19;20426;-83
2022/11/03 10:28:16;;;;;;;9.68;2.67;;;16.90;66.40;;;;;;7382155;19;20017;-83
2022/11/03 10:30:58;;;;;;;7.88;3.17;;;16.90;66.70;;;;;;7381220;19;20023;-84
2022/11/03 10:33:32;;;;;;;12.02;2.33;;;16.90;66.90;;;;;;7381362;19;20038;-83
2022/11/03 10:36:02;;;;;;;6.03;2.75;;;16.90;66.70;;;;;;7383631;19;20006;-82
2022/11/03 10:38:33;;;;;;;12.45;2.83;;;17.00;66.60;;;;;;7385413;19;20087;-83
2022/11/03 10:41:17;;;;;;;6.85;2.58;;;17.00;66.60;;;;;;7393897;19;20007;-80
2022/11/03 10:43:47;;;;;;;7.82;2.72;;;17.00;66.70;;;;;;7430162;19;20019;-83
2022/11/03 10:46:21;;;;;;;9.77;2.92;;;17.10;66.70;;;;;;7401829;19;20019;-86
2022/11/03 10:49:04;;;;;;;11.18;2.65;;;17.20;66.80;;;;;;7386168;19;20089;-83
2022/11/03 10:51:34;;;;;;;11.95;2.63;;;17.20;66.40;;;;;;7382011;19;20185;-85
2022/11/03 10:54:04;;;;;;;6.03;2.40;;;17.30;66.60;;;;;;7382899;19;20097;-81
2022/11/03 10:56:34;;;;;;;6.78;2.58;;;17.30;66.40;;;;;;7389946;19;20018;-88
2022/11/03 10:59:03;;;;;;;10.50;2.80;;;17.30;66.20;;;;;;7386821;19;20068;-85
2022/11/03 11:01:34;;;;;;;6.03;2.28;;;17.30;65.80;;;;;;7402150;19;20026;-83
2022/11/03 11:04:05;;;;;;;6.50;2.10;;;17.30;66.10;;;;;;7379383;19;20023;-86
2022/11/03 11:06:35;;;;;;;8.77;2.13;;;17.20;66.30;;;;;;7379559;19;20791;-82
2022/11/03 11:09:08;;;;;;;5.75;2.70;;;17.10;66.70;;;;;;7378354;19;20014;-80
2022/11/03 11:11:37;;;;;;;4.90;2.30;;;17.10;67.00;;;;;;7377128;19;20333;-81
2022/11/03 11:14:26;;;;;;;8.52;2.45;;;17.10;67.20;;;;;;7380776;19;20370;-81
2022/11/03 11:16:59;;;;;;;11.68;2.40;;;16.90;67.60;;;;;;7398688;19;20437;-81
2022/11/03 11:19:29;;;;;;;6.68;2.28;;;17.00;67.70;;;;;;7379083;19;20055;-83
2022/11/03 11:22:03;;;;;;;5.13;2.40;;;17.00;67.80;;;;;;7377923;19;20022;-81
2022/11/03 11:25:03;;;;;;;10.77;2.65;;;17.00;67.70;;;;;;7376777;19;20097;-80
2022/11/03 11:27:57;;;;;;;5.47;2.50;;;17.10;67.70;;;;;;7379257;19;20445;-81
2022/11/03 11:30:58;;;;;;;8.98;3.03;;;17.10;68.90;;;;;;7378401;19;20018;-87
2022/11/03 11:33:32;;;;;;;6.43;2.83;;;17.00;69.80;;;;;;7380538;19;20010;-84
2022/11/03 11:36:20;;;;;;;6.55;2.70;;;16.90;70.30;;;;;;7379455;19;20018;-82
2022/11/03 11:39:10;;;;;;;5.82;2.30;;;16.90;71.00;;;;;;7379216;19;20463;-81
2022/11/03 11:42:08;;;;;;;7.47;2.75;;;16.90;70.70;;;;;;7377354;19;20097;-80
2022/11/03 11:44:57;;;;;;;6.15;2.88;;;17.00;70.40;;;;;;7381209;19;20018;-81
2022/11/03 11:47:52;;;;;;;7.85;2.88;;;16.90;70.50;;;;;;7388873;19;20027;-84
2022/11/03 11:50:30;;;;;;;9.82;3.03;;;16.70;72.30;;;;;;7391218;19;20014;-85
2022/11/03 11:53:06;;;;;;;13.82;3.35;;;16.90;72.30;;;;;;7413516;19;20015;-84
2022/11/03 11:55:47;;;;;;;9.27;3.17;;;17.00;72.60;;;;;;7391244;19;20063;-84
2022/11/03 11:58:21;;;;;;;9.10;3.33;;;17.10;72.70;;;;;;7388333;19;20010;-83
2022/11/03 12:01:03;;;;;;;7.22;3.15;;;17.20;72.40;;;;;;7384072;19;20082;-79
2022/11/03 12:03:36;;;;;;;7.85;3.00;;;17.20;72.00;;;;;;7381981;19;20038;-78
2022/11/03 12:06:08;;;;;;;14.52;3.55;;;17.20;72.10;;;;;;7385554;19;20021;-85
2022/11/03 12:08:37;;;;;;;6.53;3.00;;;17.10;72.30;;;;;;7379511;19;20018;-79
2022/11/03 12:11:07;;;;;;;10.80;3.30;;;17.00;73.50;;;;;;7376586;19;20086;-79
2022/11/03 12:13:50;;;;;;;9.25;3.53;;;16.90;73.60;;;;;;7398492;19;20015;-77
2022/11/03 12:16:32;;;;;;;7.05;3.30;;;16.70;74.90;;;;;;7373377;19;20045;-78
2022/11/03 12:19:30;;;;;;;11.75;3.33;;;16.50;75.70;;;;;;7375795;19;20025;-78
2022/11/03 12:22:02;;;;;;;8.98;3.20;;;16.60;75.70;;;;;;7374892;19;20018;-77
2022/11/03 12:24:56;;;;;;;7.20;2.97;;;16.70;75.10;;;;;;7376389;19;20160;-77
2022/11/03 12:27:43;;;;;;;11.20;3.17;;;16.70;75.40;;;;;;7378587;19;20067;-77
2022/11/03 12:30:20;;;;;;;12.05;2.95;;;16.50;75.60;;;;;;7379981;19;20021;-78
2022/11/03 12:32:50;;;;;;;7.82;2.97;;;16.50;76.10;;;;;;7377359;19;20014;-78
2022/11/03 12:35:19;;;;;;;11.80;3.03;;;16.70;75.50;;;;;;7376979;19;20070;-78
2022/11/03 12:37:51;;;;;;;8.90;3.00;;;16.80;75.30;;;;;;7398253;19;20077;-78
2022/11/03 12:40:20;;;;;;;9.13;3.15;;;16.80;75.50;;;;;;7377864;19;20329;-79
2022/11/03 12:42:48;;;;;;;7.32;2.90;;;16.90;75.60;;;;;;7377880;19;20097;-78
2022/11/03 12:45:17;;;;;;;7.57;3.10;;;16.90;75.80;;;;;;7378130;19;20031;-79
2022/11/03 12:47:46;;;;;;;12.77;3.28;;;16.90;75.90;;;;;;7375745;19;20591;-79
2022/11/03 12:50:15;;;;;;;7.47;2.97;;;17.00;75.80;;;;;;7373974;19;20371;-79
2022/11/03 12:52:44;;;;;;;11.60;3.20;;;16.70;76.70;;;;;;7396792;19;20014;-79
2022/11/03 12:55:15;;;;;;;8.00;3.05;;;16.70;76.90;;;;;;7372100;19;20106;-79
2022/11/03 12:57:44;;;;;;;;;;;16.80;77.00;;;;;;7372808;19;20018;-79
2022/11/03 13:00:14;;;;;;;6.55;3.10;;;16.70;76.90;;;;;;7373217;19;19927;-79
2022/11/03 13:02:43;;;;;;;11.43;3.10;;;16.40;78.10;;;;;;7374954;19;20015;-79
2022/11/03 13:05:14;;;;;;;9.85;3.15;;;16.50;78.00;;;;;;7373958;19;20103;-79
2022/11/03 13:07:42;;;;;;;7.60;3.07;;;16.50;78.20;;;;;;7398758;19;20445;-80
2022/11/03 13:10:12;;;;;;;8.65;2.90;;;16.50;77.90;;;;;;7374493;19;20130;-79
2022/11/03 13:12:44;;;;;;;8.48;3.00;;;16.50;77.80;;;;;;7373915;19;20770;-77
2022/11/03 13:15:14;;;;;;;10.63;3.13;;;16.30;79.30;;;;;;7371795;19;20029;-76
2022/11/03 13:17:44;;;;;;;8.57;3.35;;;16.20;79.10;;;;;;7374622;19;20457;-77
2022/11/03 13:20:15;;;;;;;9.40;3.28;;;16.30;79.10;;;;;;7375580;19;20015;-78
2022/11/03 13:22:44;;;;;;;11.15;3.78;;;16.30;79.00;;;;;;7393645;19;20011;-79
2022/11/03 13:25:12;;;;;;;15.70;3.92;;;16.30;79.10;;;;;;7374193;19;20010;-77
2022/11/03 13:27:44;;;;;;;10.40;3.42;;;16.30;79.60;;;;;;7376368;19;20017;-78
2022/11/03 13:30:14;;;;;;;7.22;3.33;;;16.30;79.90;;;;;;7373673;19;20073;-77